createdAt,value
2022-11-24T00:00:22.847Z,70.60
2022-11-24T00:05:24.694Z,70.50
2022-11-24T00:10:26.666Z,70.50
2022-11-24T00:15:28.482Z,70.60
2022-11-24T00:20:30.597Z,70.60
2022-11-24T00:25:32.422Z,70.60
2022-11-24T00:30:34.151Z,70.50
2022-11-24T00:35:35.796Z,70.50
2022-11-24T00:40:37.626Z,70.50
2022-11-24T00:45:39.557Z,70.50
2022-11-24T00:50:41.519Z,70.40
2022-11-24T00:55:43.438Z,70.30
2022-11-24T01:00:45.124Z,70.20
2022-11-24T01:05:46.889Z,70.00
2022-11-24T01:10:49.058Z,69.90
2022-11-24T01:15:50.914Z,69.90
2022-11-24T01:20:52.658Z,69.90
2022-11-24T01:25:54.347Z,69.90
2022-11-24T01:30:59.910Z,69.80
2022-11-24T01:36:02.061Z,69.90
2022-11-24T01:41:03.946Z,69.90
2022-11-24T01:46:18.007Z,69.90
2022-11-24T01:51:22.433Z,69.90
2022-11-24T01:56:24.255Z,69.90
2022-11-24T02:06:43.781Z,70.10
2022-11-24T02:11:46.325Z,70.00
2022-11-24T02:16:51.322Z,70.10
2022-11-24T02:21:52.965Z,70.10
2022-11-24T02:26:54.656Z,70.20
2022-11-24T02:31:58.549Z,70.10
2022-11-24T02:37:00.393Z,70.10
2022-11-24T02:42:04.249Z,70.10
2022-11-24T02:47:07.369Z,70.20
2022-11-24T02:52:09.182Z,70.10
2022-11-24T02:57:11.091Z,70.10
2022-11-24T03:02:12.793Z,70.00
2022-11-24T03:07:14.919Z,69.70
2022-11-24T03:12:16.705Z,69.60
2022-11-24T03:17:18.435Z,69.60
2022-11-24T03:22:20.106Z,69.60
2022-11-24T03:27:21.787Z,69.60
2022-11-24T03:32:23.663Z,69.60
2022-11-24T03:37:25.364Z,69.60
2022-11-24T03:42:27.177Z,69.50
2022-11-24T03:47:28.862Z,69.60
2022-11-24T03:52:30.525Z,69.60
2022-11-24T03:57:32.406Z,69.50
2022-11-24T04:02:34.343Z,69.70
2022-11-24T04:07:36.369Z,69.70
2022-11-24T04:12:44.025Z,69.70
2022-11-24T04:17:46.125Z,69.80
2022-11-24T04:22:49.692Z,69.90
2022-11-24T04:27:52.733Z,69.80
2022-11-24T04:32:54.549Z,69.80
2022-11-24T04:37:56.304Z,69.90
2022-11-24T04:42:57.971Z,69.90
2022-11-24T04:47:59.778Z,69.60
2022-11-24T04:53:01.519Z,69.50
2022-11-24T04:58:03.575Z,69.40
2022-11-24T05:03:05.318Z,69.40
2022-11-24T05:08:07.129Z,69.40
2022-11-24T05:13:12.729Z,69.40
2022-11-24T05:18:16.340Z,69.40
2022-11-24T05:23:18.048Z,69.30
2022-11-24T05:28:19.785Z,69.30
2022-11-24T05:33:23.015Z,69.40
2022-11-24T05:38:24.728Z,69.50
2022-11-24T05:43:26.370Z,69.50
2022-11-24T05:48:28.272Z,69.70
2022-11-24T05:53:29.957Z,69.60
2022-11-24T05:58:31.557Z,69.30
2022-11-24T06:03:33.511Z,68.70
2022-11-24T06:08:35.390Z,68.50
2022-11-24T06:13:37.099Z,68.40
2022-11-24T06:18:39.010Z,68.30
2022-11-24T06:23:40.662Z,68.40
2022-11-24T06:28:42.481Z,68.60
2022-11-24T06:33:44.371Z,68.70
2022-11-24T06:38:46.231Z,68.90
2022-11-24T06:43:48.039Z,69.10
2022-11-24T06:48:52.921Z,69.30
2022-11-24T06:53:54.908Z,69.50
2022-11-24T06:58:56.650Z,69.60
2022-11-24T07:03:58.846Z,69.60
2022-11-24T07:09:00.698Z,70.50
2022-11-24T07:14:02.430Z,70.80
2022-11-24T07:19:04.076Z,71.20
2022-11-24T07:24:05.905Z,71.50
2022-11-24T07:29:07.624Z,71.30
2022-11-24T07:34:09.385Z,71.20
2022-11-24T07:39:11.234Z,71.00
2022-11-24T07:44:12.902Z,71.00
2022-11-24T07:49:14.685Z,71.10
2022-11-24T07:54:16.337Z,71.00
2022-11-24T07:59:17.972Z,70.90
2022-11-24T08:04:20.124Z,71.00
2022-11-24T08:09:21.880Z,71.10
2022-11-24T08:14:23.486Z,71.20
2022-11-24T08:19:25.112Z,71.20
2022-11-24T08:24:27.217Z,71.30
2022-11-24T08:29:29.972Z,71.40
2022-11-24T08:34:31.838Z,71.30
2022-11-24T08:39:33.679Z,71.30
2022-11-24T08:44:36.192Z,71.30
2022-11-24T08:49:38.071Z,71.30
2022-11-24T08:54:40.852Z,71.30
2022-11-24T08:59:42.717Z,71.20
2022-11-24T09:04:45.678Z,71.30
2022-11-24T09:09:47.445Z,71.30
2022-11-24T09:14:48.996Z,71.20
2022-11-24T09:19:50.895Z,70.90
2022-11-24T09:24:52.617Z,70.90
2022-11-24T09:29:54.406Z,70.90
2022-11-24T09:34:55.996Z,70.90
2022-11-24T09:39:57.667Z,70.80
2022-11-24T09:45:09.450Z,70.90
2022-11-24T09:50:17.150Z,70.90
2022-11-24T09:55:25.630Z,70.90
2022-11-24T10:00:27.330Z,71.00
2022-11-24T10:05:30.843Z,71.00
2022-11-24T10:10:43.491Z,71.00
2022-11-24T10:15:49.751Z,70.90
2022-11-24T10:21:10.179Z,70.90
2022-11-24T10:26:28.875Z,71.00
2022-11-24T10:31:39.090Z,70.90
2022-11-24T10:36:48.266Z,71.10
2022-11-24T10:41:59.143Z,71.00
2022-11-24T10:47:00.822Z,71.10
2022-11-24T10:52:07.130Z,71.10
2022-11-24T10:57:09.010Z,71.10
2022-11-24T11:02:30.748Z,71.20
2022-11-24T11:07:32.500Z,71.30
2022-11-24T11:12:43.984Z,71.20
2022-11-24T11:17:46.395Z,71.20
2022-11-24T11:22:49.754Z,71.30
2022-11-24T11:27:51.407Z,71.40
2022-11-24T11:38:16.123Z,71.60
2022-11-24T11:43:17.723Z,71.40
2022-11-24T11:48:46.792Z,71.40
2022-11-24T11:54:03.640Z,71.70
2022-11-24T11:59:11.200Z,71.60
2022-11-24T12:04:16.027Z,71.60
2022-11-24T12:09:24.362Z,71.70
2022-11-24T12:14:31.487Z,71.70
2022-11-24T12:19:59.851Z,71.70
2022-11-24T12:25:20.754Z,71.80
2022-11-24T12:30:22.754Z,71.80
2022-11-24T12:35:33.760Z,71.90
2022-11-24T12:40:46.443Z,71.90
2022-11-24T12:45:58.052Z,71.90
2022-11-24T12:51:00.311Z,71.90
2022-11-24T12:56:06.314Z,72.00
2022-11-24T13:01:23.528Z,72.00
2022-11-24T13:06:49.100Z,72.00
2022-11-24T13:12:04.998Z,72.10
2022-11-24T13:17:36.012Z,72.10
2022-11-24T13:22:45.616Z,72.10
2022-11-24T13:27:48.736Z,72.00
2022-11-24T13:32:59.502Z,72.00
2022-11-24T13:38:01.086Z,72.10
2022-11-24T13:43:02.787Z,72.00
2022-11-24T13:48:20.211Z,72.00
2022-11-24T13:53:29.079Z,72.10
2022-11-24T13:58:34.041Z,72.10
2022-11-24T14:03:35.719Z,72.10
2022-11-24T14:08:38.128Z,72.10
2022-11-24T14:13:39.785Z,72.20
2022-11-24T14:18:42.745Z,72.20
2022-11-24T14:23:45.572Z,72.20
2022-11-24T14:28:47.549Z,72.10
2022-11-24T14:33:49.747Z,72.10
2022-11-24T14:38:51.386Z,72.10
2022-11-24T14:44:11.480Z,72.00
2022-11-24T14:49:21.130Z,72.00
2022-11-24T14:54:23.552Z,72.00
2022-11-24T14:59:26.068Z,72.00
2022-11-24T15:09:52.920Z,72.00
2022-11-24T15:14:56.736Z,72.00
2022-11-24T15:20:00.944Z,71.80
2022-11-24T15:25:02.937Z,71.70
2022-11-24T15:30:04.915Z,71.70
2022-11-24T15:35:10.225Z,71.60
2022-11-24T15:40:12.445Z,71.50
2022-11-24T15:45:14.161Z,71.50
2022-11-24T15:50:15.890Z,71.50
2022-11-24T15:55:18.957Z,71.50
2022-11-24T16:00:22.092Z,71.50
2022-11-24T16:05:23.749Z,71.50
2022-11-24T16:10:29.923Z,71.40
2022-11-24T16:15:31.648Z,71.60
2022-11-24T16:20:35.799Z,71.60
2022-11-24T16:25:37.426Z,71.40
2022-11-24T16:30:39.060Z,70.70
2022-11-24T16:35:40.748Z,70.00
2022-11-24T16:40:42.612Z,69.50
2022-11-24T16:45:45.710Z,68.90
2022-11-24T16:50:47.590Z,68.40
2022-11-24T16:55:56.429Z,67.90
2022-11-24T17:01:08.450Z,67.90
2022-11-24T17:06:11.603Z,68.30
2022-11-24T17:11:14.765Z,70.60
2022-11-24T17:16:17.697Z,72.80
2022-11-24T17:21:23.114Z,75.50
2022-11-24T17:26:25.494Z,76.20
2022-11-24T17:31:28.876Z,74.70
2022-11-24T17:36:31.491Z,74.40
2022-11-24T17:41:33.543Z,74.10
2022-11-24T17:46:35.688Z,73.30
2022-11-24T17:51:37.436Z,73.00
2022-11-24T17:56:40.690Z,72.80
2022-11-24T18:01:42.753Z,73.00
2022-11-24T18:06:44.642Z,72.60
2022-11-24T18:11:47.874Z,72.40
2022-11-24T18:16:50.457Z,72.60
2022-11-24T18:21:52.342Z,72.70
2022-11-24T18:26:53.972Z,72.60
2022-11-24T18:31:55.801Z,72.50
2022-11-24T18:36:57.519Z,72.40
2022-11-24T18:41:59.656Z,72.50
2022-11-24T18:47:01.444Z,72.40
2022-11-24T18:52:03.232Z,72.30
2022-11-24T18:57:04.902Z,72.20
2022-11-24T19:02:06.700Z,72.20
2022-11-24T19:07:08.639Z,72.10
2022-11-24T19:12:10.599Z,72.10
2022-11-24T19:17:12.843Z,72.00
2022-11-24T19:22:15.779Z,71.90
2022-11-24T19:27:18.559Z,71.70
2022-11-24T19:32:20.877Z,71.70
2022-11-24T19:37:23.467Z,71.80
2022-11-24T19:42:25.186Z,72.00
2022-11-24T19:47:27.852Z,72.10
2022-11-24T19:52:29.901Z,72.10
2022-11-24T19:57:31.438Z,71.90
2022-11-24T20:02:33.092Z,71.70
2022-11-24T20:07:34.913Z,71.80
2022-11-24T20:12:36.614Z,71.90
2022-11-24T20:17:38.175Z,71.90
2022-11-24T20:22:39.838Z,72.10
2022-11-24T20:27:41.538Z,72.20
2022-11-24T20:32:43.791Z,72.40
2022-11-24T20:37:45.455Z,72.60
2022-11-24T20:42:49.930Z,72.70
2022-11-24T20:47:51.570Z,72.80
2022-11-24T20:52:53.340Z,72.90
2022-11-24T20:57:55.088Z,73.10
2022-11-24T21:02:58.210Z,73.20
2022-11-24T21:08:00.064Z,73.10
2022-11-24T21:13:03.547Z,73.00
2022-11-24T21:18:05.734Z,72.90
2022-11-24T21:23:07.361Z,73.00
2022-11-24T21:28:09.455Z,72.90
2022-11-24T21:33:11.638Z,72.90
2022-11-24T21:38:13.850Z,73.00
2022-11-24T21:43:15.395Z,73.00
2022-11-24T21:48:16.984Z,72.80
2022-11-24T21:53:18.781Z,72.80
2022-11-24T21:58:20.834Z,72.80
2022-11-24T22:03:22.526Z,72.90
2022-11-24T22:08:24.645Z,72.90
2022-11-24T22:13:26.279Z,72.90
2022-11-24T22:18:30.242Z,72.90
2022-11-24T22:23:32.486Z,72.80
2022-11-24T22:28:35.425Z,72.90
2022-11-24T22:33:37.226Z,72.80
2022-11-24T22:38:38.870Z,72.80
2022-11-24T22:43:41.035Z,72.70
2022-11-24T22:48:43.974Z,72.70
2022-11-24T22:53:49.771Z,72.60
2022-11-24T22:58:51.610Z,72.60
2022-11-24T23:03:54.570Z,72.60
2022-11-24T23:08:57.170Z,72.60
2022-11-24T23:14:01.892Z,72.60
2022-11-24T23:19:03.874Z,72.50
2022-11-24T23:24:05.945Z,72.40
2022-11-24T23:29:08.180Z,72.40
2022-11-24T23:34:10.008Z,72.50
2022-11-24T23:39:12.655Z,73.40
2022-11-24T23:44:14.314Z,72.40
2022-11-24T23:49:16.017Z,72.30
2022-11-24T23:54:17.645Z,72.30
2022-11-24T23:59:19.836Z,72.30
